ORBI/SDA METAR and TAF weather

Enter ICAO airport designator
Station Type Date Time Source
ORBI METAR 2019/08/24 21:00 UTC NOAA

ORBI 242100Z 34002KT CAVOK 33/13 Q1003 NOSIG


Station Type Date Time Source
ORBI Decoded METAR 2019/08/24 21:00 UTC NOAA

Station name not available
Aug 24, 2019 - 05:00 PM EDT / 2019.08.24 2100 UTC
Wind: from the NNW (340 degrees) at 2 MPH (2 KT):0
Visibility: greater than 7 mile(s):0
Temperature: 91 F (33 C)
Dew Point: 55 F (13 C)
Relative Humidity: 29%
Pressure (altimeter): 29.62 in. Hg (1003 hPa)
ob: ORBI 242100Z 34002KT CAVOK 33/13 Q1003 NOSIG
cycle: 21

Station Type Date Time Source
ORBI TAF 2019/08/24 18:09 UTC NOAA

TAF TAF ORBI 241700Z 2418/2518 30008KT 8000 NSC

Example: see airport list